Time;durP1;ratioP1;P1;durP2;ratioP2;P2;SDS_P1;SDS_P2;PMS_P1;PMS_P2;Temp;Humidity;BMP_temperature;BMP_pressure;BME280_temperature;BME280_humidity;BME280_pressure;Samples;Min_cycle;Max_cycle;Signal;HPM_P1;HPM_P2
2023/08/11 00:01:30;;;;;;;4.83;3.67;;;12.20;99.90;;;;;;5032545;28;20645;-77
2023/08/11 00:03:58;;;;;;;7.17;3.47;;;12.20;99.90;;;;;;5031890;28;20205;-78
2023/08/11 00:06:26;;;;;;;5.93;3.40;;;12.20;99.90;;;;;;5032352;28;20212;-78
2023/08/11 00:08:54;;;;;;;5.00;3.77;;;12.20;99.90;;;;;;5032361;28;20204;-77
2023/08/11 00:11:24;;;;;;;4.43;3.30;;;12.10;99.90;;;;;;5032314;28;20219;-78
2023/08/11 00:13:52;;;;;;;3.90;3.50;;;12.10;99.90;;;;;;5032139;28;20232;-78
2023/08/11 00:16:21;;;;;;;4.63;3.90;;;12.10;99.90;;;;;;5032437;28;20209;-78
2023/08/11 00:18:50;;;;;;;5.10;3.30;;;12.10;99.90;;;;;;5032060;28;20314;-78
2023/08/11 00:21:18;;;;;;;5.87;3.93;;;12.10;99.90;;;;;;5032054;28;20304;-78
2023/08/11 00:23:46;;;;;;;5.77;3.70;;;12.00;99.90;;;;;;5031822;28;20197;-78
2023/08/11 00:26:14;;;;;;;5.10;3.70;;;12.00;99.90;;;;;;5031748;28;20297;-77
2023/08/11 00:28:44;;;;;;;5.67;4.10;;;12.00;99.90;;;;;;5034362;28;20675;-78
2023/08/11 00:31:13;;;;;;;5.20;3.70;;;12.00;99.90;;;;;;5048131;28;20208;-78
2023/08/11 00:33:46;;;;;;;4.40;3.87;;;12.00;99.90;;;;;;5055019;28;20690;-78
2023/08/11 00:36:15;;;;;;;5.43;4.00;;;11.90;99.90;;;;;;5042731;28;20209;-78
2023/08/11 00:38:43;;;;;;;6.07;4.00;;;11.90;99.90;;;;;;5035457;28;20748;-77
2023/08/11 00:41:11;;;;;;;4.43;3.70;;;11.90;99.90;;;;;;5035397;28;20213;-78
2023/08/11 00:43:39;;;;;;;3.60;3.30;;;11.80;99.90;;;;;;5034864;28;20675;-78
2023/08/11 00:46:10;;;;;;;7.83;3.97;;;11.80;99.90;;;;;;5035542;28;20286;-76
2023/08/11 00:48:39;;;;;;;4.43;3.57;;;11.80;99.90;;;;;;5035393;28;20212;-77
2023/08/11 00:51:09;;;;;;;4.73;3.83;;;11.70;99.90;;;;;;5035433;28;20256;-77
2023/08/11 00:53:38;;;;;;;6.87;3.70;;;11.70;99.90;;;;;;5034828;28;20225;-78
2023/08/11 00:56:07;;;;;;;6.67;4.27;;;11.70;99.90;;;;;;5035025;28;20270;-77
2023/08/11 00:58:36;;;;;;;5.20;3.83;;;11.70;99.90;;;;;;5035327;28;20213;-79
2023/08/11 01:01:04;;;;;;;5.40;4.40;;;11.60;99.90;;;;;;5034965;28;20219;-78
2023/08/11 01:03:33;;;;;;;5.13;4.10;;;11.60;99.90;;;;;;5034951;28;20232;-78
2023/08/11 01:06:08;;;;;;;5.93;3.80;;;11.60;99.90;;;;;;5035342;28;20726;-78
2023/08/11 01:08:48;;;;;;;6.77;4.37;;;11.60;99.90;;;;;;5037867;28;20311;-77
2023/08/11 01:11:26;;;;;;;5.93;4.33;;;11.50;99.90;;;;;;5017570;28;20643;-77
2023/08/11 01:14:02;;;;;;;7.77;4.10;;;11.40;99.90;;;;;;5018225;28;20306;-77
2023/08/11 01:16:32;;;;;;;7.77;4.40;;;11.40;99.90;;;;;;5034934;28;20698;-78
2023/08/11 01:19:03;;;;;;;5.93;4.30;;;11.40;99.90;;;;;;5035189;28;20207;-77
2023/08/11 01:21:35;;;;;;;5.23;4.37;;;11.30;99.90;;;;;;5035524;28;20208;-75
2023/08/11 01:24:06;;;;;;;6.73;4.30;;;11.30;99.90;;;;;;5037350;28;20205;-78
2023/08/11 01:26:34;;;;;;;5.03;4.20;;;11.20;99.90;;;;;;5038065;28;20625;-77
2023/08/11 01:29:02;;;;;;;8.70;4.40;;;11.30;99.90;;;;;;5043860;28;20208;-76
2023/08/11 01:31:30;;;;;;;4.43;4.03;;;11.20;99.90;;;;;;5045107;28;20205;-75
2023/08/11 01:33:58;;;;;;;5.53;4.30;;;11.20;99.90;;;;;;5036616;28;20267;-79
2023/08/11 01:36:26;;;;;;;4.97;4.20;;;11.20;99.90;;;;;;5034805;28;20298;-78
2023/08/11 01:38:54;;;;;;;4.97;4.00;;;11.20;99.90;;;;;;5034137;28;20215;-78
2023/08/11 01:41:24;;;;;;;6.33;4.10;;;11.10;99.90;;;;;;5034427;28;20679;-77
2023/08/11 01:43:53;;;;;;;4.57;4.03;;;11.10;99.90;;;;;;5034401;28;20209;-76
2023/08/11 01:46:23;;;;;;;6.07;4.10;;;11.10;99.90;;;;;;5035415;28;20228;-77
2023/08/11 01:48:53;;;;;;;9.13;4.47;;;11.00;99.90;;;;;;5035215;28;20682;-78
2023/08/11 01:51:22;;;;;;;5.53;3.80;;;11.10;99.90;;;;;;5035760;28;20209;-78
2023/08/11 01:53:50;;;;;;;6.20;4.07;;;11.10;99.90;;;;;;5034735;28;20228;-78
2023/08/11 01:56:19;;;;;;;4.43;3.87;;;11.10;99.90;;;;;;5035079;28;20208;-79
2023/08/11 01:58:48;;;;;;;4.27;3.87;;;11.00;99.90;;;;;;5034726;28;20628;-76
2023/08/11 02:01:16;;;;;;;7.00;4.50;;;11.00;99.90;;;;;;5034435;28;20571;-77
2023/08/11 02:03:44;;;;;;;4.60;3.97;;;11.00;99.90;;;;;;5034541;28;20305;-78
2023/08/11 02:06:13;;;;;;;4.40;4.00;;;11.00;99.90;;;;;;5034152;28;20209;-77
2023/08/11 02:08:41;;;;;;;5.93;4.07;;;11.00;99.90;;;;;;5034196;28;20266;-77
2023/08/11 02:11:09;;;;;;;5.07;4.37;;;11.00;99.90;;;;;;5034178;28;20237;-76
2023/08/11 02:13:37;;;;;;;5.63;4.30;;;11.00;99.90;;;;;;5045123;28;20229;-77
2023/08/11 02:16:06;;;;;;;9.13;4.37;;;11.00;99.90;;;;;;5053774;28;20740;-78
2023/08/11 02:18:35;;;;;;;6.13;4.37;;;10.90;99.90;;;;;;5053635;28;20272;-78
2023/08/11 02:21:03;;;;;;;5.47;4.63;;;10.90;99.90;;;;;;5054167;28;20239;-78
2023/08/11 02:23:31;;;;;;;7.27;4.80;;;10.80;99.90;;;;;;5034718;28;20648;-76
2023/08/11 02:26:00;;;;;;;6.37;4.50;;;10.80;99.90;;;;;;5039321;28;20547;-75
2023/08/11 02:28:29;;;;;;;5.27;4.77;;;10.80;99.90;;;;;;5048273;28;20208;-77
2023/08/11 02:30:57;;;;;;;7.43;5.00;;;10.80;99.90;;;;;;5052351;28;20216;-77
2023/08/11 02:33:26;;;;;;;6.47;4.70;;;10.80;99.90;;;;;;5053235;28;20639;-78
2023/08/11 02:35:55;;;;;;;5.33;4.80;;;10.80;99.90;;;;;;5053619;28;20208;-75
2023/08/11 02:38:23;;;;;;;6.87;4.90;;;10.80;99.90;;;;;;5054591;28;20212;-78
2023/08/11 02:40:51;;;;;;;6.87;4.73;;;10.80;99.90;;;;;;5033664;28;20253;-76
2023/08/11 02:43:19;;;;;;;6.60;4.37;;;10.80;99.90;;;;;;5033086;28;20231;-77
2023/08/11 02:45:47;;;;;;;7.83;4.87;;;10.80;99.90;;;;;;5033269;28;20220;-77
2023/08/11 02:48:15;;;;;;;6.60;4.53;;;10.70;99.90;;;;;;5033101;28;20820;-78
2023/08/11 02:50:45;;;;;;;6.90;4.90;;;10.70;99.90;;;;;;5033091;28;20212;-79
2023/08/11 02:53:13;;;;;;;7.13;4.90;;;10.70;99.90;;;;;;5033240;28;20209;-79
2023/08/11 02:55:41;;;;;;;4.77;4.37;;;10.70;99.90;;;;;;5033063;28;20229;-78
2023/08/11 02:58:09;;;;;;;5.50;4.70;;;10.70;99.90;;;;;;5033396;28;20255;-78
2023/08/11 03:00:37;;;;;;;5.00;4.50;;;10.60;99.90;;;;;;5032667;28;20209;-78
2023/08/11 03:03:05;;;;;;;8.63;4.70;;;10.60;99.90;;;;;;5033524;28;20243;-78
2023/08/11 03:05:34;;;;;;;6.97;4.37;;;10.60;99.90;;;;;;5034775;28;20209;-78
2023/08/11 03:08:04;;;;;;;6.47;4.87;;;10.60;99.90;;;;;;5034458;28;20558;-78
2023/08/11 03:10:32;;;;;;;6.17;5.17;;;10.60;99.90;;;;;;5034098;28;20718;-77
2023/08/11 03:13:21;;;;;;;7.67;5.00;;;10.60;99.90;;;;;;5033530;28;20463;-79
2023/08/11 03:15:49;;;;;;;8.73;5.37;;;10.60;99.90;;;;;;5034242;28;20236;-76
2023/08/11 03:18:17;;;;;;;5.87;4.80;;;10.60;99.90;;;;;;5034299;28;20224;-77
2023/08/11 03:20:45;;;;;;;6.30;5.20;;;10.60;99.90;;;;;;5033940;28;20216;-78
2023/08/11 03:23:15;;;;;;;5.50;4.87;;;10.60;99.90;;;;;;5033179;28;20215;-78
2023/08/11 03:25:43;;;;;;;8.47;4.90;;;10.60;99.90;;;;;;5035730;28;20209;-78
2023/08/11 03:28:12;;;;;;;6.00;5.27;;;10.60;99.90;;;;;;5053394;28;20208;-78
2023/08/11 03:30:40;;;;;;;8.20;5.23;;;10.60;99.90;;;;;;5035808;28;20217;-78
2023/08/11 03:33:08;;;;;;;6.93;5.10;;;10.70;99.90;;;;;;5033284;28;20667;-78
2023/08/11 03:35:36;;;;;;;5.77;4.70;;;10.70;99.90;;;;;;5033393;28;20233;-77
2023/08/11 03:38:05;;;;;;;5.00;4.50;;;10.70;99.90;;;;;;5033626;28;20217;-77
2023/08/11 03:40:34;;;;;;;5.40;4.90;;;10.60;99.90;;;;;;5033970;28;20571;-78
2023/08/11 03:43:03;;;;;;;5.37;4.87;;;10.60;99.90;;;;;;5034082;28;20216;-78
2023/08/11 03:45:31;;;;;;;7.90;5.53;;;10.60;99.90;;;;;;5033648;28;20213;-76
2023/08/11 03:48:00;;;;;;;6.30;5.60;;;10.60;99.90;;;;;;5033535;28;20236;-77
2023/08/11 03:50:28;;;;;;;6.73;4.80;;;10.60;99.90;;;;;;5032817;28;20209;-77
2023/08/11 03:52:56;;;;;;;7.03;5.43;;;10.60;99.90;;;;;;5032628;28;20229;-77
2023/08/11 03:55:24;;;;;;;8.70;5.57;;;10.60;99.90;;;;;;5034245;28;20695;-77
2023/08/11 03:57:53;;;;;;;7.03;5.20;;;10.60;99.90;;;;;;5051289;28;20670;-77
2023/08/11 04:00:23;;;;;;;5.43;4.93;;;10.60;99.90;;;;;;5053115;28;20208;-77
2023/08/11 04:02:51;;;;;;;6.60;5.37;;;10.60;99.90;;;;;;5056245;28;20581;-78
2023/08/11 04:05:20;;;;;;;5.50;5.00;;;10.60;99.90;;;;;;5058421;28;20204;-76
2023/08/11 04:07:48;;;;;;;5.40;4.90;;;10.50;99.90;;;;;;5059404;28;20216;-75
2023/08/11 04:10:17;;;;;;;5.90;5.17;;;10.50;99.90;;;;;;5059587;28;20599;-75
2023/08/11 04:12:45;;;;;;;8.23;5.50;;;10.50;99.90;;;;;;5058082;28;20207;-78
2023/08/11 04:15:15;;;;;;;6.47;5.10;;;10.60;99.90;;;;;;5038332;28;20224;-78
2023/08/11 04:17:43;;;;;;;6.23;4.97;;;10.60;99.90;;;;;;5038119;28;20212;-78
2023/08/11 04:20:12;;;;;;;5.83;5.03;;;10.50;99.90;;;;;;5038310;28;20683;-78
2023/08/11 04:22:42;;;;;;;6.03;5.30;;;10.50;99.90;;;;;;5037747;28;20288;-78
2023/08/11 04:25:11;;;;;;;5.87;5.27;;;10.50;99.90;;;;;;5047532;28;20607;-77
2023/08/11 04:27:40;;;;;;;9.50;5.53;;;10.50;99.90;;;;;;5058159;28;20761;-76
2023/08/11 04:30:10;;;;;;;5.90;5.30;;;10.50;99.90;;;;;;5055195;28;20745;-77
2023/08/11 04:32:40;;;;;;;5.90;5.30;;;10.60;99.90;;;;;;5037604;28;20255;-77
2023/08/11 04:35:08;;;;;;;8.93;5.73;;;10.50;99.90;;;;;;5038154;28;20232;-76
2023/08/11 04:37:36;;;;;;;9.70;5.93;;;10.60;99.90;;;;;;5038245;28;20209;-75
2023/08/11 04:40:11;;;;;;;7.77;5.40;;;10.60;99.90;;;;;;5038242;28;20209;-76
2023/08/11 04:42:39;;;;;;;6.07;5.47;;;10.60;99.90;;;;;;5037909;28;20203;-76
2023/08/11 04:45:08;;;;;;;9.77;5.87;;;10.60;99.90;;;;;;5038542;28;20259;-76
2023/08/11 04:47:37;;;;;;;9.10;5.67;;;10.60;99.90;;;;;;5037589;28;20316;-78
2023/08/11 04:50:08;;;;;;;6.80;5.90;;;10.70;99.90;;;;;;5038049;28;20204;-77
2023/08/11 04:52:37;;;;;;;8.50;5.80;;;10.70;99.90;;;;;;5038232;28;20208;-77
2023/08/11 04:55:07;;;;;;;8.20;5.90;;;10.80;99.90;;;;;;5038143;28;20232;-77
2023/08/11 04:57:35;;;;;;;7.27;5.20;;;10.90;99.90;;;;;;5037826;28;20208;-77
2023/08/11 05:00:06;;;;;;;6.70;5.10;;;10.90;99.90;;;;;;5038211;28;20212;-75
2023/08/11 05:02:34;;;;;;;8.17;5.60;;;11.00;99.90;;;;;;5037732;28;20731;-78
2023/08/11 05:05:05;;;;;;;8.17;5.70;;;11.00;99.90;;;;;;5038656;28;20632;-78
2023/08/11 05:07:34;;;;;;;5.80;5.17;;;11.10;99.90;;;;;;5054873;28;20231;-77
2023/08/11 05:10:04;;;;;;;6.93;5.20;;;11.20;99.90;;;;;;5058314;28;20258;-78
2023/08/11 05:12:32;;;;;;;6.83;4.90;;;11.30;99.90;;;;;;5057937;28;20204;-76
2023/08/11 05:15:00;;;;;;;7.40;5.57;;;11.40;99.90;;;;;;5045439;28;20695;-77
2023/08/11 05:17:28;;;;;;;8.63;5.93;;;11.50;99.90;;;;;;5035004;28;20208;-77
2023/08/11 05:19:56;;;;;;;9.53;6.33;;;11.50;99.90;;;;;;5035062;28;20573;-78
2023/08/11 05:22:25;;;;;;;7.73;5.70;;;11.70;99.90;;;;;;5041060;28;20262;-76
2023/08/11 05:24:54;;;;;;;6.30;5.40;;;11.70;99.90;;;;;;5054978;28;20658;-77
2023/08/11 05:27:22;;;;;;;6.30;5.60;;;11.80;99.90;;;;;;5054647;28;20603;-77
2023/08/11 05:29:51;;;;;;;7.47;5.73;;;12.00;99.90;;;;;;5053572;28;20209;-78
2023/08/11 05:32:19;;;;;;;5.77;5.17;;;12.10;99.90;;;;;;5054318;28;20674;-77
2023/08/11 05:34:47;;;;;;;7.50;5.70;;;12.20;99.90;;;;;;5054406;28;20208;-78
2023/08/11 05:37:15;;;;;;;6.97;5.37;;;12.30;99.90;;;;;;5053000;28;20234;-78
2023/08/11 05:39:43;;;;;;;6.27;5.60;;;12.40;99.90;;;;;;5034306;28;20255;-77
2023/08/11 05:42:12;;;;;;;6.03;5.00;;;12.50;99.90;;;;;;5034373;28;20217;-77
2023/08/11 05:44:41;;;;;;;6.13;4.77;;;12.60;99.90;;;;;;5034645;28;20205;-77
2023/08/11 05:47:09;;;;;;;5.97;5.07;;;12.70;99.90;;;;;;5033994;28;20717;-77
2023/08/11 05:49:37;;;;;;;5.53;5.00;;;12.80;99.90;;;;;;5034107;28;20266;-77
2023/08/11 05:52:06;;;;;;;4.57;4.17;;;12.90;99.90;;;;;;5033913;28;20741;-78
2023/08/11 05:54:34;;;;;;;8.27;5.30;;;13.00;99.90;;;;;;5034418;28;20213;-77
2023/08/11 05:57:02;;;;;;;7.10;5.13;;;13.10;99.90;;;;;;5034166;28;20710;-76
2023/08/11 05:59:32;;;;;;;7.17;4.77;;;13.30;99.90;;;;;;5035363;28;20215;-76
2023/08/11 06:02:00;;;;;;;6.03;4.37;;;13.40;99.90;;;;;;5050784;28;20204;-76
2023/08/11 06:04:28;;;;;;;6.73;4.57;;;13.50;99.90;;;;;;5054539;28;20571;-77
2023/08/11 06:06:56;;;;;;;6.27;4.77;;;13.70;99.90;;;;;;5054218;28;20259;-77
2023/08/11 06:09:24;;;;;;;6.17;4.60;;;13.90;99.90;;;;;;5050161;28;20215;-78
2023/08/11 06:11:52;;;;;;;5.57;4.30;;;14.20;99.90;;;;;;5033476;28;20671;-75
2023/08/11 06:14:21;;;;;;;4.60;4.00;;;14.60;99.90;;;;;;5034101;28;20205;-78
2023/08/11 06:16:50;;;;;;;5.20;3.90;;;15.20;99.90;;;;;;5033682;28;20270;-77
2023/08/11 06:19:18;;;;;;;5.27;3.80;;;15.90;99.90;;;;;;5033744;28;20341;-76
2023/08/11 06:21:46;;;;;;;3.80;3.23;;;16.60;99.90;;;;;;5038189;28;20203;-75
2023/08/11 06:24:15;;;;;;;6.40;3.50;;;17.00;99.90;;;;;;5053630;28;20204;-77
2023/08/11 06:26:44;;;;;;;5.73;3.47;;;17.20;99.90;;;;;;5040248;28;20205;-77
2023/08/11 06:29:12;;;;;;;6.23;3.50;;;17.60;99.90;;;;;;5033419;28;20667;-78
2023/08/11 06:31:42;;;;;;;4.67;3.50;;;17.90;99.90;;;;;;5033561;28;20208;-78
2023/08/11 06:34:12;;;;;;;3.67;3.33;;;17.70;99.90;;;;;;5033382;28;20216;-77
2023/08/11 06:36:40;;;;;;;4.20;3.47;;;18.00;99.90;;;;;;5033150;28;20237;-76
2023/08/11 06:39:08;;;;;;;5.90;3.60;;;17.90;99.90;;;;;;5033470;28;20697;-77
2023/08/11 06:41:36;;;;;;;6.00;3.90;;;17.90;99.90;;;;;;5033538;28;20393;-77
2023/08/11 06:44:05;;;;;;;4.87;3.33;;;18.40;99.90;;;;;;5033715;28;20888;-78
2023/08/11 06:46:33;;;;;;;5.33;3.73;;;18.60;99.90;;;;;;5033511;28;20300;-77
2023/08/11 06:49:02;;;;;;;4.73;3.43;;;18.80;99.90;;;;;;5033408;28;20270;-78
2023/08/11 06:51:31;;;;;;;4.90;3.40;;;19.20;99.90;;;;;;5033647;28;20314;-78
2023/08/11 06:54:00;;;;;;;4.33;2.97;;;19.70;99.90;;;;;;5036304;28;20219;-77
2023/08/11 06:56:28;;;;;;;4.43;3.30;;;20.30;99.90;;;;;;5052883;28;20315;-78
2023/08/11 06:58:56;;;;;;;3.70;3.10;;;20.70;99.90;;;;;;5053078;28;20208;-76
2023/08/11 07:01:24;;;;;;;4.43;3.10;;;21.10;99.90;;;;;;5053043;28;20208;-76
2023/08/11 07:03:52;;;;;;;5.17;3.23;;;21.30;99.90;;;;;;5041821;28;20311;-77
2023/08/11 07:06:20;;;;;;;3.53;2.80;;;21.30;99.90;;;;;;5033213;28;20548;-76
2023/08/11 07:08:50;;;;;;;3.93;2.50;;;21.50;99.90;;;;;;5032822;28;20212;-79
2023/08/11 07:11:18;;;;;;;4.93;2.83;;;22.10;99.90;;;;;;5032456;28;20664;-75
2023/08/11 07:13:46;;;;;;;3.63;3.10;;;22.30;99.90;;;;;;5032705;28;20294;-76
2023/08/11 07:16:14;;;;;;;3.03;2.57;;;22.80;99.90;;;;;;5032751;28;20280;-78
2023/08/11 07:18:42;;;;;;;3.10;2.73;;;23.70;99.90;;;;;;5033141;28;20217;-77
2023/08/11 07:21:11;;;;;;;2.80;2.60;;;24.20;99.90;;;;;;5043534;28;20204;-74
2023/08/11 07:23:39;;;;;;;3.80;3.00;;;24.50;99.90;;;;;;5052506;28;20219;-76
2023/08/11 07:26:09;;;;;;;3.00;2.70;;;24.80;99.60;;;;;;5052777;28;20211;-75
2023/08/11 07:28:37;;;;;;;3.13;2.45;;;25.00;99.70;;;;;;5049374;28;20861;-74
2023/08/11 07:31:05;;;;;;;4.97;2.90;;;25.50;97.30;;;;;;5032595;28;20213;-76
2023/08/11 07:33:33;;;;;;;4.18;2.55;;;25.80;96.30;;;;;;5032567;28;20209;-75
2023/08/11 07:36:01;;;;;;;3.45;2.50;;;26.80;94.50;;;;;;5032531;28;20213;-76
2023/08/11 07:38:30;;;;;;;3.38;2.40;;;27.80;90.40;;;;;;5045175;28;20212;-77
2023/08/11 07:40:58;;;;;;;3.42;2.47;;;28.80;87.20;;;;;;5052281;28;20212;-75
2023/08/11 07:43:27;;;;;;;3.47;2.72;;;29.60;79.90;;;;;;5051845;28;20257;-76
2023/08/11 07:45:55;;;;;;;3.92;2.58;;;29.50;75.10;;;;;;5042634;28;20212;-76
2023/08/11 07:48:24;;;;;;;3.63;2.83;;;29.50;72.10;;;;;;5032207;28;20208;-75
2023/08/11 07:50:52;;;;;;;3.88;2.60;;;30.10;69.40;;;;;;5032293;28;20213;-75
2023/08/11 07:53:20;;;;;;;5.25;2.60;;;30.40;66.00;;;;;;5031599;28;20267;-75
2023/08/11 07:55:48;;;;;;;4.45;2.70;;;30.40;61.00;;;;;;5031890;28;20263;-76
2023/08/11 07:58:17;;;;;;;5.22;2.60;;;31.20;60.60;;;;;;5031814;28;20201;-76
2023/08/11 08:00:47;;;;;;;3.63;2.20;;;31.40;61.20;;;;;;5032019;28;20259;-76
2023/08/11 08:03:15;;;;;;;3.83;2.70;;;32.20;56.90;;;;;;5031344;28;20736;-76
2023/08/11 08:05:45;;;;;;;4.03;2.70;;;32.60;51.60;;;;;;5031765;28;20541;-75
2023/08/11 08:08:14;;;;;;;2.35;2.20;;;32.70;52.10;;;;;;5031483;28;20237;-76
2023/08/11 08:10:42;;;;;;;2.70;2.50;;;32.10;51.00;;;;;;5031615;28;20586;-76
2023/08/11 08:13:10;;;;;;;4.97;2.90;;;32.30;51.60;;;;;;5041234;28;20244;-75
2023/08/11 08:15:38;;;;;;;2.40;2.20;;;33.30;49.70;;;;;;5052073;28;20208;-76
2023/08/11 08:18:08;;;;;;;3.83;2.83;;;32.20;50.00;;;;;;5051742;28;20666;-76
2023/08/11 08:20:36;;;;;;;5.25;2.63;;;31.70;50.50;;;;;;5051520;28;20212;-78
2023/08/11 08:23:04;;;;;;;3.75;2.70;;;33.10;49.70;;;;;;5036890;28;20209;-76
2023/08/11 08:25:33;;;;;;;2.65;2.40;;;33.20;50.00;;;;;;5032321;28;20205;-75
2023/08/11 08:28:01;;;;;;;4.68;2.70;;;33.10;46.30;;;;;;5031502;28;20232;-76
2023/08/11 08:30:34;;;;;;;3.72;2.70;;;33.20;48.80;;;;;;5031825;28;20208;-77
2023/08/11 08:33:02;;;;;;;3.45;2.45;;;32.40;47.50;;;;;;5031593;28;20292;-74
2023/08/11 08:35:32;;;;;;;2.85;2.50;;;33.30;45.90;;;;;;5031788;28;20219;-76
2023/08/11 08:38:00;;;;;;;4.00;2.67;;;34.60;43.70;;;;;;5031636;28;20695;-76
2023/08/11 08:40:29;;;;;;;6.13;2.80;;;35.70;40.80;;;;;;5031635;28;20220;-74
2023/08/11 08:42:58;;;;;;;3.95;2.50;;;32.60;42.50;;;;;;5031661;28;20249;-76
2023/08/11 08:45:26;;;;;;;4.70;2.67;;;33.30;45.40;;;;;;5031400;28;20271;-75
2023/08/11 08:47:57;;;;;;;4.90;2.47;;;33.00;46.70;;;;;;5031172;28;20262;-75
2023/08/11 08:50:26;;;;;;;3.00;2.50;;;32.20;46.30;;;;;;5035314;28;20639;-79
2023/08/11 08:52:56;;;;;;;4.15;2.45;;;32.70;44.90;;;;;;5035518;28;20204;-79
2023/08/11 08:55:25;;;;;;;3.13;2.63;;;33.50;45.50;;;;;;5035548;28;20217;-76
2023/08/11 08:57:55;;;;;;;2.55;2.35;;;33.20;47.10;;;;;;5034992;28;20209;-76
2023/08/11 09:00:25;;;;;;;3.05;2.60;;;32.80;45.90;;;;;;5035070;28;20639;-75
2023/08/11 09:02:55;;;;;;;2.58;2.38;;;32.80;47.70;;;;;;5034925;28;20271;-75
2023/08/11 09:05:25;;;;;;;4.05;2.70;;;33.20;45.70;;;;;;5034970;28;20213;-78
2023/08/11 09:07:55;;;;;;;4.20;2.50;;;34.00;43.00;;;;;;5034915;28;20232;-76
2023/08/11 09:10:25;;;;;;;2.95;2.30;;;34.10;42.80;;;;;;5034913;28;20213;-75
2023/08/11 09:12:53;;;;;;;4.20;2.50;;;33.70;41.40;;;;;;5034712;28;20209;-78
2023/08/11 09:15:23;;;;;;;2.60;2.40;;;33.50;42.00;;;;;;5035320;28;20213;-75
2023/08/11 09:17:51;;;;;;;2.72;2.47;;;33.30;39.30;;;;;;5054703;28;20291;-76
2023/08/11 09:20:20;;;;;;;2.50;2.30;;;32.70;42.00;;;;;;5054912;28;20204;-80
2023/08/11 09:22:50;;;;;;;3.80;2.50;;;32.20;40.10;;;;;;5054661;28;20212;-76
2023/08/11 09:25:19;;;;;;;3.40;2.38;;;32.30;44.70;;;;;;5038665;28;20220;-77
2023/08/11 09:27:51;;;;;;;2.40;2.20;;;33.40;43.40;;;;;;5034417;28;20715;-75
2023/08/11 09:30:19;;;;;;;3.20;2.50;;;33.10;41.10;;;;;;5034540;28;20705;-78
2023/08/11 09:32:49;;;;;;;2.60;2.40;;;33.00;40.30;;;;;;5034491;28;20231;-74
2023/08/11 09:35:24;;;;;;;2.58;2.38;;;33.60;39.00;;;;;;5034456;28;20205;-75
2023/08/11 09:37:53;;;;;;;3.42;2.35;;;32.70;39.70;;;;;;5034276;28;20201;-77
2023/08/11 09:40:23;;;;;;;2.38;2.17;;;32.80;39.00;;;;;;5034456;28;20209;-76
2023/08/11 09:42:55;;;;;;;3.63;2.17;;;32.50;38.20;;;;;;5034225;28;20208;-75
2023/08/11 09:45:24;;;;;;;2.20;2.00;;;33.40;38.50;;;;;;5034147;28;20698;-76
2023/08/11 09:47:53;;;;;;;2.50;2.08;;;33.50;38.40;;;;;;5034156;28;20237;-76
2023/08/11 09:50:23;;;;;;;3.15;2.10;;;33.00;41.80;;;;;;5033787;28;20773;-76
2023/08/11 09:52:51;;;;;;;2.65;2.10;;;33.60;39.20;;;;;;5033724;28;20275;-77
2023/08/11 09:55:21;;;;;;;2.60;2.00;;;34.20;38.10;;;;;;5034295;28;20209;-76
2023/08/11 09:57:52;;;;;;;2.20;2.00;;;34.20;35.70;;;;;;5033991;28;20566;-76
2023/08/11 10:00:20;;;;;;;3.40;2.15;;;34.40;34.80;;;;;;5033001;28;20255;-75
2023/08/11 10:02:57;;;;;;;2.67;2.28;;;34.80;36.30;;;;;;5033917;28;20209;-75
2023/08/11 10:05:29;;;;;;;2.25;2.05;;;33.60;36.90;;;;;;5034010;28;20228;-75
2023/08/11 10:08:01;;;;;;;3.05;2.10;;;32.90;38.80;;;;;;5033531;28;20235;-76
2023/08/11 10:10:32;;;;;;;2.30;2.10;;;33.40;38.70;;;;;;5033844;28;20209;-74
2023/08/11 10:13:06;;;;;;;2.30;2.10;;;33.60;39.40;;;;;;5033587;28;20196;-77
2023/08/11 10:15:35;;;;;;;2.35;1.98;;;33.80;37.80;;;;;;5034078;28;20212;-76
2023/08/11 10:18:05;;;;;;;2.15;1.95;;;34.40;39.40;;;;;;5033215;28;20216;-76
2023/08/11 10:20:34;;;;;;;2.40;2.00;;;34.40;37.80;;;;;;5034076;28;20212;-76
2023/08/11 10:23:03;;;;;;;2.47;2.08;;;34.60;37.50;;;;;;5033076;28;20216;-76
2023/08/11 10:25:32;;;;;;;2.40;2.13;;;35.40;32.80;;;;;;5033296;28;20296;-76
2023/08/11 10:28:07;;;;;;;2.97;2.15;;;34.20;34.70;;;;;;5033618;28;20278;-78
2023/08/11 10:30:35;;;;;;;2.05;1.90;;;33.80;35.60;;;;;;5033492;28;20554;-77
2023/08/11 10:33:08;;;;;;;2.45;2.25;;;34.40;36.90;;;;;;5033337;28;20575;-78
2023/08/11 10:35:49;;;;;;;2.47;2.05;;;33.60;36.60;;;;;;5033454;28;20212;-76
2023/08/11 10:38:23;;;;;;;3.70;2.00;;;35.40;36.30;;;;;;5033631;28;20296;-78
2023/08/11 10:40:59;;;;;;;2.55;2.35;;;34.90;36.80;;;;;;5033919;28;20193;-76
2023/08/11 10:43:32;;;;;;;2.42;2.15;;;33.70;36.00;;;;;;5032941;28;20208;-75
2023/08/11 10:46:21;;;;;;;2.88;2.00;;;34.70;34.20;;;;;;5033244;28;20233;-76
2023/08/11 10:48:50;;;;;;;4.18;2.13;;;34.70;38.50;;;;;;5032956;28;20713;-76
2023/08/11 10:51:32;;;;;;;5.20;2.47;;;34.10;36.10;;;;;;5033266;28;20209;-75
2023/08/11 10:54:11;;;;;;;2.22;2.03;;;34.40;35.50;;;;;;5032728;28;20194;-77
2023/08/11 10:56:41;;;;;;;3.03;1.98;;;33.80;35.40;;;;;;5032907;28;20216;-78
2023/08/11 10:59:14;;;;;;;2.30;2.10;;;33.50;37.20;;;;;;5033049;28;20295;-76
2023/08/11 11:01:45;;;;;;;3.30;2.00;;;33.60;35.90;;;;;;5032618;28;20294;-77
2023/08/11 11:04:15;;;;;;;2.45;2.00;;;33.60;40.00;;;;;;5032622;28;20592;-76
2023/08/11 11:06:45;;;;;;;2.33;2.08;;;33.40;36.30;;;;;;5033103;28;20224;-76
2023/08/11 11:09:14;;;;;;;2.10;1.90;;;33.30;37.50;;;;;;5032194;28;20231;-74
2023/08/11 11:11:44;;;;;;;2.22;2.00;;;32.10;36.30;;;;;;5032571;28;20217;-78
2023/08/11 11:14:14;;;;;;;2.30;2.10;;;32.00;40.00;;;;;;5032581;28;20213;-77
2023/08/11 11:16:43;;;;;;;2.60;1.90;;;32.00;41.80;;;;;;5032816;28;20216;-75
2023/08/11 11:19:11;;;;;;;2.40;2.20;;;31.90;42.80;;;;;;5032376;28;20219;-75
2023/08/11 11:21:41;;;;;;;3.85;2.03;;;31.90;41.40;;;;;;5032733;28;20209;-76
2023/08/11 11:24:10;;;;;;;2.30;2.10;;;31.70;41.90;;;;;;5032436;28;20259;-80
2023/08/11 11:26:38;;;;;;;3.17;2.00;;;31.50;43.00;;;;;;5032489;28;20216;-77
2023/08/11 11:29:06;;;;;;;2.88;2.10;;;31.20;41.60;;;;;;5032491;28;20229;-77
2023/08/11 11:31:38;;;;;;;2.60;2.30;;;31.10;43.00;;;;;;5032520;28;20215;-75
2023/08/11 11:34:07;;;;;;;2.78;2.22;;;30.50;41.30;;;;;;5032391;28;20217;-76
2023/08/11 11:36:35;;;;;;;3.63;2.10;;;30.10;43.40;;;;;;5031968;28;20215;-76
2023/08/11 11:39:05;;;;;;;2.97;2.20;;;30.30;45.20;;;;;;5032401;28;20205;-75
2023/08/11 11:41:33;;;;;;;2.50;2.23;;;30.20;43.50;;;;;;5032378;28;20266;-76
2023/08/11 11:44:02;;;;;;;2.00;1.80;;;30.20;42.80;;;;;;5031895;28;20219;-75
2023/08/11 11:46:33;;;;;;;2.37;2.10;;;30.30;45.50;;;;;;5031857;28;20233;-75
2023/08/11 11:49:03;;;;;;;2.03;1.90;;;30.40;46.90;;;;;;5032465;28;20224;-74
2023/08/11 11:51:51;;;;;;;2.83;2.40;;;30.70;47.40;;;;;;5031846;28;20643;-77
2023/08/11 11:54:19;;;;;;;2.60;2.10;;;30.60;42.70;;;;;;5031912;28;20217;-75
2023/08/11 11:56:47;;;;;;;3.67;2.10;;;30.30;43.50;;;;;;5032642;28;20216;-75
2023/08/11 11:59:32;;;;;;;2.90;2.00;;;30.40;45.00;;;;;;5032307;28;20259;-75
2023/08/11 12:02:01;;;;;;;3.30;2.13;;;30.30;46.90;;;;;;5032116;28;20255;-76
2023/08/11 12:04:31;;;;;;;2.87;1.80;;;30.50;49.60;;;;;;5032222;28;20232;-77
2023/08/11 12:07:01;;;;;;;3.60;2.13;;;30.80;45.80;;;;;;5031982;28;20216;-76
2023/08/11 12:09:30;;;;;;;3.47;2.10;;;30.90;45.10;;;;;;5032046;28;20286;-78
2023/08/11 12:11:58;;;;;;;3.40;2.10;;;30.70;43.70;;;;;;5031620;28;20212;-75
2023/08/11 12:14:27;;;;;;;2.60;2.20;;;30.60;46.10;;;;;;5044932;28;20213;-77
2023/08/11 12:16:57;;;;;;;2.10;1.90;;;30.50;48.70;;;;;;5052094;28;20262;-77
2023/08/11 12:19:25;;;;;;;2.70;1.90;;;30.40;46.20;;;;;;5050326;28;20604;-78
2023/08/11 12:21:55;;;;;;;2.27;2.07;;;30.30;45.90;;;;;;5051287;28;20208;-78
2023/08/11 12:24:24;;;;;;;4.30;1.93;;;29.80;45.90;;;;;;5054425;28;20219;-78
2023/08/11 12:26:52;;;;;;;3.70;2.47;;;29.70;48.60;;;;;;5055939;28;20208;-78
2023/08/11 12:29:20;;;;;;;4.53;2.07;;;30.00;48.20;;;;;;5042832;28;20244;-77
2023/08/11 12:31:50;;;;;;;2.53;2.00;;;29.90;48.30;;;;;;5035809;28;20263;-77
2023/08/11 12:34:18;;;;;;;2.07;1.83;;;30.10;46.60;;;;;;5035708;28;20240;-78
2023/08/11 12:36:46;;;;;;;2.73;2.07;;;30.10;48.00;;;;;;5035430;28;20213;-77
2023/08/11 12:39:16;;;;;;;2.83;1.90;;;30.40;48.80;;;;;;5035943;28;20228;-77
2023/08/11 12:41:45;;;;;;;2.60;2.20;;;30.40;45.90;;;;;;5035805;28;20216;-78
2023/08/11 12:44:13;;;;;;;3.40;2.20;;;30.10;48.90;;;;;;5038685;28;20658;-77
2023/08/11 12:46:42;;;;;;;3.37;2.10;;;30.10;45.30;;;;;;5055409;28;20236;-75
2023/08/11 12:49:10;;;;;;;2.87;2.00;;;29.60;45.00;;;;;;5055561;28;20252;-77
2023/08/11 12:51:41;;;;;;;2.30;2.10;;;29.80;47.20;;;;;;5055287;28;20253;-75
2023/08/11 12:54:09;;;;;;;2.40;1.93;;;30.00;47.50;;;;;;5043369;28;20693;-79
2023/08/11 12:56:38;;;;;;;2.40;1.80;;;29.90;45.90;;;;;;5036854;28;20209;-76
2023/08/11 12:59:07;;;;;;;1.93;1.77;;;30.20;47.10;;;;;;5035443;28;20255;-75